This is the latest recevied weather packets stored in our database for station/object IU3NMQ-10. If no packets are shown the sender has not sent any weather packets the latest 10 day(s).
| Time | Temp. | Humidity | Pressure | Rain* | Wind** | Luminosity | Snow |
|---|---|---|---|---|---|---|---|
| 1787959061 | 24.44° C | 90% | 1009 hPa | - | - | - | - |
| 1787958161 | 24.44° C | 90% | 1009.2 hPa | - | - | - | - |
| 1787957261 | 24.44° C | 89% | 1009.3 hPa | - | - | - | - |
| 1787956360 | 24.44° C | 89% | 1009.2 hPa | - | - | - | - |
| 1787955458 | 24.44° C | 90% | 1009.5 hPa | - | - | - | - |
| 1787954616 | 25° C | 90% | 1009.4 hPa | - | - | - | - |
| 1787954558 | 25° C | 90% | 1009.4 hPa | - | - | - | - |
| 1787953658 | 25° C | 90% | 1009.2 hPa | - | - | - | - |
| 1787952758 | 25° C | 89% | 1009.2 hPa | - | - | - | - |
| 1787951857 | 25° C | 91% | 1009.7 hPa | - | - | - | - |
| 1787950957 | 25° C | 90% | 1009.7 hPa | - | - | - | - |
| 1787950057 | 25° C | 90% | 1010 hPa | - | - | - | - |
| 1787949157 | 25° C | 90% | 1010.3 hPa | - | - | - | - |
| 1787948255 | 25.56° C | 90% | 1010.5 hPa | - | - | - | - |
| 1787947355 | 25.56° C | 90% | 1010.4 hPa | - | - | - | - |
| 1787946455 | 25.56° C | 89% | 1010.6 hPa | - | - | - | - |
| 1787945555 | 25.56° C | 89% | 1011.3 hPa | - | - | - | - |
| 1787944902 | 25.56° C | 92% | 1010.4 hPa | - | - | - | - |
| 1787944686 | 25.56° C | 92% | 1010.4 hPa | - | - | - | - |
| 1787944655 | 25.56° C | 92% | 1010.4 hPa | - | - | - | - |
| 1787943755 | 25.56° C | 93% | 1012.4 hPa | - | - | - | - |
| 1787943059 | 26.67° C | 87% | 1009.9 hPa | - | - | - | - |
| 1787942854 | 26.67° C | 87% | 1009.9 hPa | - | - | - | - |
| 1787941954 | 26.67° C | 86% | 1009.9 hPa | - | - | - | - |
| 1787941054 | 27.22° C | 84% | 1010 hPa | - | - | - | - |
* Rain since midnight (hover to see other rain measurements)
** Current wind speed in m/s (hover to see current wind gust speed)